createdAt,value
2019-04-22T00:01:34.587Z,52.15
2019-04-22T00:04:12.039Z,52.16
2019-04-22T00:07:07.018Z,52.42
2019-04-22T00:09:38.718Z,52.59
2019-04-22T00:12:13.797Z,52.57
2019-04-22T00:14:40.588Z,52.51
2019-04-22T00:17:27.680Z,52.51
2019-04-22T00:20:00.121Z,52.38
2019-04-22T00:22:27.442Z,52.54
2019-04-22T00:25:03.818Z,52.61
2019-04-22T00:27:38.347Z,52.45
2019-04-22T00:30:07.713Z,52.74
2019-04-22T00:32:36.703Z,52.61
2019-04-22T00:35:14.181Z,52.68
2019-04-22T00:37:54.834Z,52.52
2019-04-22T00:40:32.271Z,53.09
2019-04-22T00:42:55.298Z,53.26
2019-04-22T00:45:34.023Z,52.73
2019-04-22T00:48:00.979Z,52.90
2019-04-22T00:50:37.471Z,52.85
2019-04-22T00:53:11.950Z,52.92
2019-04-22T00:56:10.653Z,53.27
2019-04-22T01:01:19.134Z,53.16
2019-04-22T01:03:58.484Z,53.31
2019-04-22T01:06:20.465Z,53.37
2019-04-22T01:09:00.305Z,53.60
2019-04-22T01:11:29.706Z,53.84
2019-04-22T01:14:04.884Z,53.76
2019-04-22T01:16:39.277Z,53.93
2019-04-22T01:19:07.246Z,54.13
2019-04-22T01:24:16.383Z,53.98
2019-04-22T01:26:48.986Z,54.41
2019-04-22T01:29:14.961Z,54.39
2019-04-22T01:31:40.011Z,54.12
2019-04-22T01:34:27.863Z,54.05
2019-04-22T01:37:03.577Z,54.13
2019-04-22T01:39:45.517Z,54.42
2019-04-22T01:42:13.860Z,54.22
2019-04-22T01:44:49.603Z,54.31
2019-04-22T01:47:30.244Z,54.38
2019-04-22T01:49:53.871Z,54.57
2019-04-22T01:52:22.108Z,54.89
2019-04-22T01:55:08.865Z,54.86
2019-04-22T01:57:31.720Z,54.92
2019-04-22T01:59:58.721Z,55.63
2019-04-22T02:02:38.421Z,55.59
2019-04-22T02:05:15.763Z,55.63
2019-04-22T02:07:42.482Z,55.73
2019-04-22T02:10:19.371Z,55.79
2019-04-22T02:12:48.432Z,55.85
2019-04-22T02:15:24.067Z,55.64
2019-04-22T02:18:01.304Z,56.22
2019-04-22T02:20:32.900Z,56.24
2019-04-22T02:23:51.249Z,56.32
2019-04-22T02:26:15.810Z,56.16
2019-04-22T02:31:33.045Z,56.76
2019-04-22T02:34:09.069Z,57.00
2019-04-22T02:36:30.329Z,56.96
2019-04-22T02:44:30.364Z,57.06
2019-04-22T02:51:40.290Z,57.79
2019-04-22T02:57:04.384Z,57.96
2019-04-22T03:01:56.186Z,58.33
2019-04-22T03:04:31.864Z,58.48
2019-04-22T03:06:55.943Z,58.84
2019-04-22T03:09:55.474Z,58.34
2019-04-22T03:12:20.099Z,58.74
2019-04-22T03:14:48.436Z,58.92
2019-04-22T03:17:22.085Z,58.83
2019-04-22T03:20:02.615Z,59.17
2019-04-22T03:22:20.947Z,59.30
2019-04-22T03:27:33.822Z,59.39
2019-04-22T03:30:41.969Z,59.07
2019-04-22T03:35:37.368Z,59.62
2019-04-22T03:37:53.376Z,59.84
2019-04-22T03:43:02.324Z,59.43
2019-04-22T03:48:05.421Z,60.04
2019-04-22T03:53:15.117Z,60.48
2019-04-22T03:58:01.731Z,60.18
2019-04-22T04:00:49.967Z,60.25
2019-04-22T04:06:06.846Z,60.63
2019-04-22T04:10:55.326Z,61.16
2019-04-22T04:13:33.481Z,61.26
2019-04-22T04:16:07.774Z,61.31
2019-04-22T04:18:47.323Z,61.11
2019-04-22T04:24:01.390Z,61.26
2019-04-22T04:26:28.197Z,61.50
2019-04-22T04:31:43.263Z,61.62
2019-04-22T04:39:05.071Z,61.97
2019-04-22T04:41:42.143Z,61.85
2019-04-22T04:44:35.109Z,61.78
2019-04-22T04:47:37.182Z,62.02
2019-04-22T04:49:19.313Z,61.95
2019-04-22T04:51:51.286Z,61.90
2019-04-22T04:56:46.638Z,62.44
2019-04-22T04:59:46.007Z,62.12
2019-04-22T05:02:06.452Z,62.03
2019-04-22T05:04:51.065Z,62.41
2019-04-22T05:07:17.865Z,62.23
2019-04-22T05:09:37.146Z,62.27
2019-04-22T05:12:25.211Z,62.26
2019-04-22T05:14:46.498Z,62.49
2019-04-22T05:17:25.300Z,62.43
2019-04-22T05:19:56.842Z,62.38
2019-04-22T05:22:28.655Z,62.53
2019-04-22T05:24:59.294Z,62.17
2019-04-22T05:27:34.261Z,62.00
2019-04-22T05:30:19.862Z,61.81
2019-04-22T05:32:41.668Z,61.37
2019-04-22T05:35:06.859Z,61.26
2019-04-22T05:37:40.364Z,60.94
2019-04-22T05:40:19.963Z,60.76
2019-04-22T05:42:44.230Z,60.43
2019-04-22T05:45:21.647Z,59.87
2019-04-22T05:47:52.357Z,59.52
2019-04-22T05:50:24.568Z,58.74
2019-04-22T05:52:57.365Z,58.53
2019-04-22T05:55:36.093Z,57.76
2019-04-22T05:58:02.485Z,57.86
2019-04-22T06:01:06.581Z,57.37
2019-04-22T06:03:16.779Z,57.07
2019-04-22T06:05:47.377Z,56.70
2019-04-22T06:08:16.907Z,56.31
2019-04-22T06:11:05.689Z,55.73
2019-04-22T06:13:27.617Z,55.57
2019-04-22T06:16:03.646Z,55.29
2019-04-22T06:18:42.592Z,54.87
2019-04-22T06:21:20.264Z,54.18
2019-04-22T06:23:58.852Z,54.87
2019-04-22T06:26:29.265Z,54.32
2019-04-22T06:31:36.923Z,53.96
2019-04-22T06:36:37.458Z,53.34
2019-04-22T06:39:14.292Z,53.05
2019-04-22T06:41:47.977Z,52.28
2019-04-22T06:46:52.482Z,51.38
2019-04-22T06:52:05.729Z,50.44
2019-04-22T06:54:32.508Z,49.93
2019-04-22T06:57:06.238Z,50.02
2019-04-22T06:59:42.661Z,50.27
2019-04-22T07:02:24.083Z,49.13
2019-04-22T07:04:56.796Z,47.96
2019-04-22T07:07:24.029Z,47.72
2019-04-22T07:10:15.118Z,45.85
2019-04-22T07:12:43.113Z,46.75
2019-04-22T07:15:31.694Z,46.94
2019-04-22T07:17:58.185Z,45.04
2019-04-22T07:20:30.498Z,44.26
2019-04-22T07:23:08.260Z,43.60
2019-04-22T07:25:40.571Z,43.33
2019-04-22T07:28:20.214Z,42.15
2019-04-22T07:30:59.115Z,42.11
2019-04-22T07:33:58.306Z,40.61
2019-04-22T07:38:53.080Z,40.81
2019-04-22T07:41:34.479Z,40.02
2019-04-22T07:44:13.520Z,40.60
2019-04-22T07:46:41.758Z,38.04
2019-04-22T07:49:10.610Z,38.60
2019-04-22T07:54:16.339Z,36.01
2019-04-22T07:56:50.780Z,35.91
2019-04-22T07:59:22.258Z,35.71
2019-04-22T08:01:57.638Z,34.27
2019-04-22T08:07:05.410Z,32.24
2019-04-22T08:09:42.226Z,32.63
2019-04-22T08:12:04.108Z,33.67
2019-04-22T08:17:38.917Z,34.71
2019-04-22T08:19:50.229Z,34.98
2019-04-22T08:22:14.360Z,35.53
2019-04-22T08:24:54.003Z,34.57
2019-04-22T08:27:25.226Z,34.29
2019-04-22T08:30:06.665Z,35.16
2019-04-22T08:32:44.049Z,37.02
2019-04-22T08:35:20.247Z,35.83
2019-04-22T08:37:57.602Z,35.68
2019-04-22T08:40:37.444Z,35.42
2019-04-22T08:43:15.563Z,35.93
2019-04-22T08:45:46.791Z,37.22
2019-04-22T08:48:15.102Z,37.12
2019-04-22T08:50:54.103Z,37.77
2019-04-22T08:53:23.675Z,37.19
2019-04-22T08:56:07.346Z,36.90
2019-04-22T08:58:27.993Z,37.48
2019-04-22T09:01:04.910Z,36.55
2019-04-22T09:03:30.532Z,34.23
2019-04-22T09:06:15.630Z,33.92
2019-04-22T09:08:40.660Z,33.55
2019-04-22T09:11:24.685Z,31.75
2019-04-22T09:16:30.239Z,28.60
2019-04-22T09:18:56.115Z,29.59
2019-04-22T09:21:32.706Z,28.49
2019-04-22T09:26:44.971Z,26.89
2019-04-22T09:29:14.260Z,28.37
2019-04-22T09:31:45.761Z,26.09
2019-04-22T09:34:13.789Z,26.48
2019-04-22T09:36:49.983Z,26.16
2019-04-22T09:39:28.052Z,26.08
2019-04-22T09:41:59.421Z,25.76
2019-04-22T09:44:34.600Z,25.08
2019-04-22T09:47:00.381Z,24.33
2019-04-22T09:49:41.567Z,23.61
2019-04-22T09:52:14.882Z,22.92
2019-04-22T09:57:21.465Z,22.73
2019-04-22T09:59:57.503Z,23.34
2019-04-22T10:05:00.139Z,21.98
2019-04-22T10:07:32.037Z,22.54
2019-04-22T10:10:09.971Z,22.99
2019-04-22T10:12:42.869Z,22.77
2019-04-22T10:15:09.679Z,23.12
2019-04-22T10:17:47.796Z,21.71
2019-04-22T10:20:18.621Z,23.66
2019-04-22T10:23:11.196Z,21.59
2019-04-22T10:25:22.977Z,21.62
2019-04-22T10:28:03.335Z,21.87
2019-04-22T10:30:33.900Z,21.52
2019-04-22T10:32:59.208Z,20.93
2019-04-22T10:35:15.575Z,19.85
2019-04-22T10:37:42.912Z,20.04
2019-04-22T10:40:21.750Z,20.31
2019-04-22T10:42:53.608Z,20.52
2019-04-22T10:45:25.964Z,20.33
2019-04-22T10:47:58.350Z,19.44
2019-04-22T10:53:17.645Z,19.37
2019-04-22T10:55:51.612Z,20.03
2019-04-22T10:58:24.678Z,19.94
2019-04-22T11:00:58.098Z,18.63
2019-04-22T11:03:29.116Z,18.30
2019-04-22T11:06:03.334Z,18.63
2019-04-22T11:08:43.297Z,18.68
2019-04-22T11:11:26.340Z,18.48
2019-04-22T11:13:44.166Z,17.42
2019-04-22T11:16:17.590Z,17.58
2019-04-22T11:18:49.584Z,17.54
2019-04-22T11:21:20.484Z,17.19
2019-04-22T11:23:52.498Z,17.53
2019-04-22T11:26:23.975Z,17.46
2019-04-22T11:28:55.999Z,17.67
2019-04-22T11:31:28.273Z,16.98
2019-04-22T11:34:00.626Z,16.50
2019-04-22T11:36:32.601Z,16.60
2019-04-22T11:39:06.117Z,16.35
2019-04-22T11:41:36.405Z,16.21
2019-04-22T11:44:09.569Z,15.82
2019-04-22T11:46:43.204Z,16.13
2019-04-22T11:49:36.235Z,16.27
2019-04-22T11:52:09.276Z,15.56
2019-04-22T11:54:44.141Z,16.16
2019-04-22T11:57:15.225Z,15.78
2019-04-22T11:59:54.717Z,15.52
2019-04-22T12:02:27.323Z,15.81
2019-04-22T12:04:58.616Z,16.46
2019-04-22T12:07:34.807Z,16.05
2019-04-22T12:10:22.372Z,16.54
2019-04-22T12:12:39.689Z,15.09
2019-04-22T12:15:15.041Z,15.66
2019-04-22T12:17:46.221Z,15.32
2019-04-22T12:20:20.222Z,15.32
2019-04-22T12:22:53.296Z,15.92
2019-04-22T12:25:39.199Z,15.38
2019-04-22T12:27:59.211Z,14.93
2019-04-22T12:30:33.404Z,13.97
2019-04-22T12:33:07.390Z,13.35
2019-04-22T12:35:37.068Z,14.06
2019-04-22T12:38:10.297Z,14.53
2019-04-22T12:40:47.656Z,13.51
2019-04-22T12:43:16.102Z,13.75
2019-04-22T12:45:48.049Z,13.71
2019-04-22T12:48:21.159Z,13.92
2019-04-22T12:50:54.340Z,13.76
2019-04-22T12:53:27.609Z,13.25
2019-04-22T12:55:57.440Z,13.56
2019-04-22T12:58:29.800Z,13.48
2019-04-22T13:01:01.298Z,12.18
2019-04-22T13:03:32.132Z,13.66
2019-04-22T13:06:05.917Z,13.38
2019-04-22T13:08:38.090Z,13.26
2019-04-22T13:11:13.047Z,13.21
2019-04-22T13:13:44.941Z,14.67
2019-04-22T13:16:17.500Z,14.27
2019-04-22T13:18:55.677Z,13.77
2019-04-22T13:21:20.754Z,13.45
2019-04-22T13:23:52.910Z,13.77
2019-04-22T13:26:25.428Z,13.78
2019-04-22T13:28:56.970Z,14.52
2019-04-22T13:31:28.890Z,14.74
2019-04-22T13:34:02.285Z,14.75
2019-04-22T13:36:32.403Z,14.93
2019-04-22T13:39:04.866Z,15.11
2019-04-22T13:41:43.936Z,15.33
2019-04-22T13:44:09.116Z,14.89
2019-04-22T13:46:59.066Z,15.46
2019-04-22T13:49:40.439Z,15.15
2019-04-22T13:57:18.160Z,16.06
2019-04-22T13:59:38.106Z,14.91
2019-04-22T14:02:22.229Z,14.82
2019-04-22T14:04:54.768Z,15.26
2019-04-22T14:07:26.469Z,14.91
2019-04-22T14:09:58.260Z,15.18
2019-04-22T14:12:28.932Z,15.44
2019-04-22T14:15:00.243Z,15.81
2019-04-22T14:17:31.553Z,16.02
2019-04-22T14:20:04.791Z,15.71
2019-04-22T14:22:37.009Z,16.37
2019-04-22T14:25:10.558Z,15.90
2019-04-22T14:27:51.144Z,16.21
2019-04-22T14:30:16.768Z,16.21
2019-04-22T14:32:49.459Z,16.56
2019-04-22T14:35:20.929Z,16.70
2019-04-22T14:37:52.251Z,17.08
2019-04-22T14:40:26.296Z,16.98
2019-04-22T14:44:45.176Z,17.62
2019-04-22T14:46:04.357Z,18.43
2019-04-22T14:48:31.609Z,18.96
2019-04-22T14:50:57.500Z,19.55
2019-04-22T14:53:30.783Z,19.41
2019-04-22T14:55:46.370Z,19.74
2019-04-22T14:58:17.417Z,19.98
2019-04-22T15:00:51.121Z,20.24
2019-04-22T15:03:21.965Z,20.80
2019-04-22T15:05:54.423Z,21.28
2019-04-22T15:08:26.810Z,21.73
2019-04-22T15:10:58.313Z,21.45
2019-04-22T15:13:31.594Z,21.86
2019-04-22T15:16:25.672Z,21.65
2019-04-22T15:19:19.958Z,22.16
2019-04-22T15:21:52.490Z,22.15
2019-04-22T15:24:25.086Z,22.95
2019-04-22T15:27:00.870Z,23.52
2019-04-22T15:29:33.580Z,23.84
2019-04-22T15:32:05.270Z,24.28
2019-04-22T15:34:36.679Z,24.12
2019-04-22T15:37:08.552Z,24.60
2019-04-22T15:39:41.546Z,24.87
2019-04-22T15:42:20.775Z,25.02
2019-04-22T15:44:46.247Z,24.79
2019-04-22T15:47:18.645Z,24.99
2019-04-22T15:49:49.968Z,25.23
2019-04-22T15:52:30.301Z,25.18
2019-04-22T15:54:54.040Z,25.22
2019-04-22T15:57:26.353Z,25.08
2019-04-22T16:00:10.835Z,25.41
2019-04-22T16:02:29.940Z,25.26
2019-04-22T16:05:04.497Z,25.22
2019-04-22T16:07:36.055Z,25.33
2019-04-22T16:10:07.972Z,25.55
2019-04-22T16:12:47.494Z,25.73
2019-04-22T16:15:13.281Z,25.92
2019-04-22T16:17:44.581Z,25.98
2019-04-22T16:20:17.223Z,25.80
2019-04-22T16:23:05.751Z,25.82
2019-04-22T16:25:51.401Z,25.96
2019-04-22T16:28:22.415Z,25.94
2019-04-22T16:30:57.519Z,26.42
2019-04-22T16:33:35.777Z,26.76
2019-04-22T16:36:06.836Z,27.09
2019-04-22T16:38:38.139Z,27.03
2019-04-22T16:41:10.916Z,27.33
2019-04-22T16:43:42.858Z,27.62
2019-04-22T16:46:14.035Z,27.80
2019-04-22T16:48:47.658Z,28.20
2019-04-22T16:51:20.101Z,28.21
2019-04-22T16:53:50.975Z,28.47
2019-04-22T16:56:26.729Z,28.77
2019-04-22T16:58:58.899Z,28.94
2019-04-22T17:01:52.779Z,28.95
2019-04-22T17:04:46.764Z,29.18
2019-04-22T17:07:20.426Z,29.55
2019-04-22T17:09:52.149Z,29.63
2019-04-22T17:12:23.931Z,29.56
2019-04-22T17:15:05.732Z,29.66
2019-04-22T17:17:32.695Z,29.79
2019-04-22T17:20:07.441Z,29.56
2019-04-22T17:22:39.717Z,29.31
2019-04-22T17:25:12.318Z,29.44
2019-04-22T17:27:43.480Z,29.52
2019-04-22T17:30:16.670Z,29.54
2019-04-22T17:32:48.402Z,29.55
2019-04-22T17:35:20.169Z,29.72
2019-04-22T17:38:04.202Z,29.72
2019-04-22T17:40:44.953Z,29.97
2019-04-22T17:43:30.107Z,30.05
2019-04-22T17:46:15.144Z,30.09
2019-04-22T17:49:10.248Z,30.29
2019-04-22T17:51:47.753Z,30.53
2019-04-22T17:54:21.419Z,30.56
2019-04-22T17:56:51.070Z,30.75
2019-04-22T17:59:26.861Z,30.69
2019-04-22T18:01:53.959Z,30.87
2019-04-22T18:04:09.089Z,31.06
2019-04-22T18:07:07.362Z,31.42
2019-04-22T18:10:14.477Z,31.40
2019-04-22T18:12:20.493Z,31.54
2019-04-22T18:14:59.590Z,31.56
2019-04-22T18:17:29.151Z,31.66
2019-04-22T18:19:54.713Z,31.75
2019-04-22T18:22:23.086Z,31.94
2019-04-22T18:24:58.328Z,32.13
2019-04-22T18:30:06.403Z,32.34
2019-04-22T18:32:42.494Z,32.51
2019-04-22T18:35:08.059Z,32.49
2019-04-22T18:37:50.544Z,32.71
2019-04-22T18:40:18.129Z,32.94
2019-04-22T18:42:52.493Z,33.05
2019-04-22T18:47:53.167Z,33.40
2019-04-22T18:50:41.520Z,33.51
2019-04-22T18:53:27.313Z,33.55
2019-04-22T18:56:03.910Z,33.73
2019-04-22T18:58:33.276Z,33.97
2019-04-22T19:00:52.748Z,34.05
2019-04-22T19:03:29.513Z,34.29
2019-04-22T19:06:32.198Z,34.58
2019-04-22T19:08:51.791Z,34.58
2019-04-22T19:11:26.733Z,34.63
2019-04-22T19:16:39.733Z,34.95
2019-04-22T19:19:29.373Z,35.10
2019-04-22T19:21:39.432Z,35.15
2019-04-22T19:26:58.042Z,35.21
2019-04-22T19:29:20.351Z,35.15
2019-04-22T19:31:51.363Z,35.17
2019-04-22T19:34:25.281Z,35.15
2019-04-22T19:37:00.638Z,35.27
2019-04-22T19:39:31.070Z,35.27
2019-04-22T19:42:28.700Z,35.36
2019-04-22T19:44:37.736Z,35.68
2019-04-22T19:47:26.305Z,35.85
2019-04-22T19:49:54.578Z,35.98
2019-04-22T19:52:24.093Z,36.08
2019-04-22T19:54:58.334Z,36.23
2019-04-22T19:57:27.626Z,36.22
2019-04-22T20:00:03.826Z,36.25
2019-04-22T20:03:12.604Z,36.31
2019-04-22T20:05:50.873Z,36.45
2019-04-22T20:08:20.831Z,36.61
2019-04-22T20:10:52.258Z,36.67
2019-04-22T20:13:36.998Z,36.75
2019-04-22T20:15:55.289Z,36.90
2019-04-22T20:18:46.381Z,36.68
2019-04-22T20:21:18.319Z,36.56
2019-04-22T20:24:12.019Z,36.61
2019-04-22T20:27:02.855Z,36.41
2019-04-22T20:29:41.732Z,36.32
2019-04-22T20:32:15.699Z,36.33
2019-04-22T20:35:09.316Z,36.38
2019-04-22T20:38:04.254Z,36.22
2019-04-22T20:40:23.329Z,36.39
2019-04-22T20:43:01.420Z,36.62
2019-04-22T20:45:51.180Z,36.56
2019-04-22T20:48:15.847Z,36.72
2019-04-22T20:51:00.957Z,36.55
2019-04-22T20:53:36.409Z,36.42
2019-04-22T20:56:08.914Z,36.34
2019-04-22T20:58:42.801Z,36.09
2019-04-22T21:00:59.867Z,35.93
2019-04-22T21:03:33.335Z,35.75
2019-04-22T21:06:16.389Z,35.65
2019-04-22T21:08:54.656Z,35.30
2019-04-22T21:11:19.381Z,35.32
2019-04-22T21:13:56.108Z,35.30
2019-04-22T21:16:36.579Z,35.31
2019-04-22T21:19:03.810Z,35.26
2019-04-22T21:21:45.008Z,35.32
2019-04-22T21:24:09.205Z,35.36
2019-04-22T21:26:51.317Z,35.50
2019-04-22T21:29:26.293Z,35.59
2019-04-22T21:32:09.066Z,35.48
2019-04-22T21:34:47.575Z,35.59
2019-04-22T21:37:31.906Z,35.46
2019-04-22T21:39:43.657Z,35.56
2019-04-22T21:42:36.718Z,35.57
2019-04-22T21:45:05.582Z,35.50
2019-04-22T21:47:55.640Z,35.45
2019-04-22T21:50:35.608Z,35.36
2019-04-22T21:52:56.843Z,35.24
2019-04-22T21:55:29.783Z,35.22
2019-04-22T21:58:06.876Z,35.10
2019-04-22T22:00:53.509Z,35.17
2019-04-22T22:03:21.851Z,34.92
2019-04-22T22:05:41.629Z,34.90
2019-04-22T22:08:27.572Z,35.01
2019-04-22T22:10:51.135Z,35.10
2019-04-22T22:13:27.070Z,34.97
2019-04-22T22:16:00.131Z,34.86
2019-04-22T22:18:30.750Z,35.03
2019-04-22T22:21:30.943Z,34.89
2019-04-22T22:23:45.668Z,34.98
2019-04-22T22:26:10.990Z,34.66
2019-04-22T22:28:57.202Z,34.78
2019-04-22T22:31:28.618Z,34.69
2019-04-22T22:33:57.685Z,34.91
2019-04-22T22:36:23.715Z,34.97
2019-04-22T22:38:54.618Z,34.87
2019-04-22T22:41:14.090Z,34.91
2019-04-22T22:43:49.113Z,35.05
2019-04-22T22:46:29.577Z,35.16
2019-04-22T22:49:18.549Z,35.31
2019-04-22T22:51:57.281Z,35.51
2019-04-22T22:54:17.552Z,35.61
2019-04-22T22:57:05.338Z,35.72
2019-04-22T22:59:27.637Z,35.93
2019-04-22T23:02:01.290Z,35.91
2019-04-22T23:04:41.190Z,36.16
2019-04-22T23:07:11.151Z,36.16
2019-04-22T23:09:47.210Z,36.26
2019-04-22T23:12:31.505Z,36.18
2019-04-22T23:14:52.351Z,36.34
2019-04-22T23:17:07.504Z,36.29
2019-04-22T23:19:39.831Z,36.23
2019-04-22T23:22:20.569Z,36.27
2019-04-22T23:25:11.743Z,36.31
2019-04-22T23:27:51.516Z,36.42
2019-04-22T23:30:43.488Z,36.35
2019-04-22T23:33:26.421Z,36.25
2019-04-22T23:36:10.653Z,36.45
2019-04-22T23:38:50.608Z,36.54
2019-04-22T23:44:17.727Z,36.47
2019-04-22T23:46:52.176Z,36.39
2019-04-22T23:49:26.726Z,36.48
2019-04-22T23:52:19.244Z,36.45
2019-04-22T23:54:39.294Z,36.47
2019-04-22T23:57:03.385Z,36.55
